x

Bay Of Campeche - 214 Nm Ne Of Veracruz, Mx (42055) Wave Buoy

9:50am - Thu 29th Sep 2016 All times are UTC.

  • Sig Wave height 2.0ft
  • Swell Direction
  • Peak Period 5s
  • Average Period 5s
  • Wind
    9mph, 11mph gusts
  • Sea Temp 86°f
  • Air Temp 84°f
  • Sea Pressure 1015.3mb

More Historic Weather Station data

Upgrade to MSW Pro to gain access to the past 30 days of data for over 8000 Wavebouys and Weather Stations around the globe.

Join Pro

Comparision Forecast

View Surf forecast
   
Thu 09/29 9:50am 2ft 5s 5s 9 11 mph 1015.3mb 86f 84f
8:50am 2.5ft 5s 5s 7
mph
1014.9mb 86f 84f
7:50am 2.5ft 6s 5s 4 7 mph 1015.1mb 86f 84f
6:50am 2.5ft 5s 5s 7 9 mph 1015.5mb 86f 84f
5:50am 2.5ft 6s 5s 7 9 mph 1015.8mb 86f 84f
4:50am 2.5ft 6s 5s 7
mph
1016.2mb 86f 85f
3:50am 2.5ft 6s 5s 7 11 mph 1016.3mb 86f 85f
2:50am 2.5ft 5s 5s 9 11 mph 1015.7mb 86f 85f
1:50am 2ft 5s 4s 7 9 mph 1015mb 86f 84f
12:50am 2ft 5s 4s 7
mph
1014.4mb 86f 84f
Wed 09/28 11:50pm 2ft 5s 4s 2 4 mph 1014mb 86f 84f
10:50pm 2.5ft 5s 4s  -  2 mph 1013.8mb 86f 84f
9:50pm 2.5ft 5s 4s  -  2 mph 1013.9mb 86f 83f
8:50pm 2.5ft 5s 4s 7
mph
1014.1mb 86f 84f
7:50pm 2.5ft 5s 4s 9 11 mph 1013.8mb 86f 84f
6:50pm 2.5ft 5s 4s 9 11 mph 1014.5mb 86f 83f
5:50pm 2.5ft 5s 4s 13 18 mph 1014.9mb 86f 82f
4:50pm 2.5ft 5s 4s 11 13 mph 1015.2mb 86f 85f
3:50pm 3ft 5s 4s 13 16 mph 1014.9mb 86f 85f
2:50pm 3ft 5s 4s 16 18 mph 1014.3mb 86f 85f
1:50pm 2.5ft 5s 4s 16 18 mph 1013.7mb 86f 86f
12:50pm 2.5ft 5s 4s 16 18 mph 1013.2mb 86f 85f
11:50am 2.5ft 5s 4s 13 16 mph 1012.9mb 86f 85f
10:50am 2.5ft 5s 4s 16 18 mph 1012.2mb 86f 85f
9:50am 2.5ft 5s 4s 18 20 mph 1012.2mb 86f 85f
8:50am 2.5ft 5s 4s 16 18 mph 1011.8mb 86f 85f
7:50am 2.5ft 5s 4s 16 18 mph 1012mb 86f 85f
6:50am 2.5ft 5s 4s 13 16 mph 1012.5mb 86f 84f
5:50am 2.5ft 5s 4s 11 16 mph 1012.9mb 86f 84f
4:50am 2.5ft 5s 4s 13
mph
1013.2mb 86f 84f
3:50am 2.5ft 5s 4s 11 13 mph 1013.2mb 86f 83f
2:50am 2.5ft 5s 5s 11
mph
1012.9mb 86f 83f
1:50am 2.5ft 5s 5s 9 11 mph 1012.4mb 86f 83f
12:50am 2.5ft 5s 4s 7 9 mph 1011.5mb 86f 83f
Tue 09/27 11:50pm 2.5ft 5s 5s 4 7 mph 1010.9mb 86f 82f
10:50pm 2.5ft 5s 4s  -  2 mph 1010.4mb 86f 81f
9:50pm 2.5ft 5s 4s 2 4 mph 1010.9mb 86f 80f
8:50pm 2.5ft 5s 4s 11 16 mph 1011.2mb 86f 81f
7:50pm 2.5ft 5s 4s 9 11 mph 1011.6mb 86f 80f
6:50pm 2.5ft 5s 4s 9 11 mph 1012.6mb 86f 78f
5:50pm 2.5ft 5s 4s 7 11 mph 1013.1mb 86f 79f
4:50pm 2.5ft 5s 4s 2 9 mph 1013.4mb 86f 79f
3:50pm 2.5ft 5s 4s 16 22 mph 1012.7mb 86f 82f
1:50pm 3ft 5s 4s 13 16 mph 1011.6mb 86f 82f
12:50pm 3.5ft 5s 4s 13 16 mph 1011.1mb 86f 81f
11:50am 3.5ft 5s 4s 13 16 mph 1010.8mb 86f 79f
10:50am 3ft 6s 4s 20 22 mph 1010.8mb 86f 79f
9:50am 3ft 5s 4s 22 29 mph 1010.7mb 86f 78f
8:50am 3.5ft 6s 5s 9 13 mph 1010.4mb 86f 82f
7:50am 4ft 6s 4s 13 16 mph 1010.6mb 86f 82f
6:50am 3ft 6s 5s 25 29 mph 1011.1mb 86f 81f
5:50am 3ft 6s 5s 11 13 mph 1011.9mb 86f 84f
4:50am 2.5ft 6s 5s 16 18 mph 1012.4mb 86f 84f
3:50am 3ft 6s 5s 13 16 mph 1012.7mb 86f 84f
2:50am 3ft 6s 5s 11 13 mph 1012.1mb 86f 83f
1:50am 3.5ft 6s 5s 9 11 mph 1011.2mb 86f 83f
12:50am 3.5ft 6s 5s 9 11 mph 1010.8mb 86f 82f
Mon 09/26 11:50pm 3.5ft 6s 5s 4 7 mph 1010.2mb 86f 82f
10:50pm 4ft 6s 5s 11 13 mph 1009.4mb 86f 82f
9:50pm 4ft 6s 5s 16 18 mph 1009.9mb 86f 81f
8:50pm 4.5ft 7s 5s 11 16 mph 1010.7mb 86f 80f
7:50pm 4.5ft 7s 5s 11 13 mph 1011mb 86f 79f
6:50pm 5ft 7s 5s 22 27 mph 1010.6mb 86f 79f
5:50pm 4.5ft 7s 5s 22 27 mph 1011.7mb 86f 81f
4:50pm 4.5ft 6s 5s 16 20 mph 1012.4mb 86f 80f
3:50pm 5ft 6s 5s 18 20 mph 1012.2mb 86f 81f
2:50pm 5ft 6s 5s 16 22 mph 1012.1mb 86f 80f
1:50pm 5ft 6s 5s 22 25 mph 1011.8mb 87f 80f
12:50pm 4.5ft 6s 5s 18 22 mph 1010.9mb 87f 83f
11:50am 4.5ft 6s 5s 13 16 mph 1010.4mb 87f 83f
10:50am 5ft 6s 5s 16 20 mph 1010.1mb 87f 82f
9:50am 4.5ft 6s 5s 22 27 mph 1010.1mb 87f 79f
8:50am 3.5ft 6s 5s 20 22 mph 1010.1mb 87f 84f
7:50am 4.5ft 6s 5s 13 16 mph 1010.7mb 87f 84f
6:50am 4.5ft 6s 5s 16 20 mph 1011.3mb 87f 84f
5:50am 4ft 6s 4s 27 34 mph 1011.5mb 87f 82f
4:50am 4.5ft 6s 5s 18 20 mph 1011.9mb 87f 86f
3:50am 4ft 5s 4s 18 20 mph 1012.3mb 87f 85f
2:50am 3.5ft 5s 4s 20 25 mph 1011.9mb 87f 86f
1:50am 3.5ft 6s 4s 18 22 mph 1011.2mb 87f 86f
12:50am 3ft 6s 4s 13 18 mph 1011mb 87f 84f
Sun 09/25 11:50pm 3.5ft 5s 5s 11 13 mph 1010.3mb 87f 83f
10:50pm 3.5ft 6s 4s 9 13 mph 1010.5mb 87f 83f
9:50pm 4ft 6s 5s 13 18 mph 1010.6mb 87f 83f
8:50pm 4ft 6s 4s 16 18 mph 1011.4mb 87f 82f
7:50pm 3.5ft 5s 4s 18 20 mph 1011.8mb 87f 81f
6:50pm 3.5ft 6s 4s 22 29 mph 1012.4mb 87f 80f
5:50pm 3ft 6s 4s 18 20 mph 1013.1mb 87f 86f
4:50pm 3.5ft 6s 5s 18 20 mph 1013mb 87f 85f
3:50pm 3.5ft 6s 4s 13 18 mph 1013.5mb 87f 82f
2:50pm 3.5ft 5s 5s 13 18 mph 1013.5mb 87f 85f
1:50pm 3.5ft 5s 4s 13 18 mph 1012.9mb 87f 85f
12:50pm 3.5ft 5s 4s 16 20 mph 1012.4mb 87f 84f
11:50am 3.5ft 5s 4s 16 18 mph 1012.2mb 87f 84f